Time;durP1;ratioP1;P1;durP2;ratioP2;P2;SDS_P1;SDS_P2;PMS_P1;PMS_P2;Temp;Humidity;BMP_temperature;BMP_pressure;BME280_temperature;BME280_humidity;BME280_pressure;Samples;Min_cycle;Max_cycle;Signal;HPM_P1;HPM_P2
2021/07/22 00:00:54;;;;;;;11.13;9.27;;;16.30;99.90;;;;;;5047510;28;20263;-40
2021/07/22 00:03:20;;;;;;;12.60;9.57;;;16.20;99.90;;;;;;5048944;28;20240;-40
2021/07/22 00:05:46;;;;;;;13.10;9.33;;;16.10;99.90;;;;;;5037645;28;20210;-41
2021/07/22 00:08:11;;;;;;;9.87;8.60;;;16.10;99.90;;;;;;5048743;28;20190;-38
2021/07/22 00:10:40;;;;;;;9.70;8.47;;;16.20;99.90;;;;;;5048920;28;20275;-39
2021/07/22 00:13:07;;;;;;;10.73;9.23;;;16.20;99.90;;;;;;5048341;28;20186;-40
2021/07/22 00:15:33;;;;;;;12.17;9.90;;;16.10;99.90;;;;;;5048313;28;20432;-39
2021/07/22 00:17:59;;;;;;;11.30;8.43;;;16.10;99.90;;;;;;5048503;28;20444;-38
2021/07/22 00:20:25;;;;;;;14.60;9.30;;;16.20;99.90;;;;;;5039386;28;20439;-39
2021/07/22 00:22:50;;;;;;;10.50;9.30;;;16.30;99.90;;;;;;5045093;28;20416;-40
2021/07/22 00:25:16;;;;;;;10.60;8.67;;;16.30;99.90;;;;;;5048063;28;20671;-42
2021/07/22 00:27:42;;;;;;;10.80;8.73;;;16.40;99.90;;;;;;5048134;28;20253;-39
2021/07/22 00:30:08;;;;;;;10.50;8.40;;;16.50;99.90;;;;;;5048377;28;20772;-41
2021/07/22 00:32:35;;;;;;;11.03;9.00;;;16.50;99.90;;;;;;5048486;28;20196;-42
2021/07/22 00:35:01;;;;;;;10.87;8.70;;;16.50;99.90;;;;;;5043209;28;20918;-41
2021/07/22 00:37:27;;;;;;;12.03;9.47;;;16.40;99.90;;;;;;5042877;28;20413;-39
2021/07/22 00:39:53;;;;;;;12.73;8.47;;;16.40;99.90;;;;;;5048421;28;20450;-41
2021/07/22 00:42:18;;;;;;;11.23;9.03;;;16.30;99.90;;;;;;5048494;28;20182;-39
2021/07/22 00:44:44;;;;;;;10.37;9.13;;;16.30;99.90;;;;;;5047422;28;20189;-42
2021/07/22 00:47:09;;;;;;;12.47;8.97;;;16.30;99.90;;;;;;5057756;28;20295;-39
2021/07/22 00:49:35;;;;;;;9.20;7.83;;;16.30;99.90;;;;;;5062984;28;20228;-39
2021/07/22 00:52:01;;;;;;;9.83;8.73;;;16.40;99.90;;;;;;5038651;28;20204;-39
2021/07/22 00:54:26;;;;;;;9.70;8.70;;;16.30;99.90;;;;;;5047393;28;20193;-40
2021/07/22 00:56:52;;;;;;;11.67;9.20;;;16.40;99.90;;;;;;5048033;28;20668;-40
2021/07/22 00:59:18;;;;;;;13.57;9.30;;;16.30;99.90;;;;;;5048129;28;20194;-39
2021/07/22 01:01:43;;;;;;;11.57;9.37;;;16.20;99.90;;;;;;5048153;28;20588;-42
2021/07/22 01:04:09;;;;;;;11.17;8.90;;;16.10;99.90;;;;;;5047187;28;20200;-39
2021/07/22 01:06:35;;;;;;;11.97;9.87;;;16.10;99.90;;;;;;5038300;28;20200;-40
2021/07/22 01:09:00;;;;;;;12.17;9.23;;;16.20;99.90;;;;;;5047595;28;20216;-40
2021/07/22 01:11:26;;;;;;;13.03;9.43;;;16.40;99.90;;;;;;5046548;28;20331;-40
2021/07/22 01:13:52;;;;;;;12.50;9.30;;;16.50;99.90;;;;;;5047614;28;20264;-39
2021/07/22 01:16:17;;;;;;;10.97;9.03;;;16.60;99.90;;;;;;5047329;28;20243;-39
2021/07/22 01:18:43;;;;;;;10.90;9.30;;;16.60;99.90;;;;;;5047697;28;20174;-39
2021/07/22 01:21:09;;;;;;;11.50;9.37;;;16.70;99.90;;;;;;5040604;28;20531;-39
2021/07/22 01:23:35;;;;;;;10.90;9.07;;;16.70;99.90;;;;;;5047172;28;20193;-42
2021/07/22 01:26:01;;;;;;;9.23;8.13;;;16.60;99.90;;;;;;5046758;28;20436;-39
2021/07/22 01:28:27;;;;;;;11.77;9.03;;;16.60;99.90;;;;;;5047244;28;20338;-39
2021/07/22 01:30:53;;;;;;;11.50;8.20;;;16.60;99.90;;;;;;5047699;28;20933;-44
2021/07/22 01:33:18;;;;;;;11.20;8.23;;;16.70;99.90;;;;;;5047537;28;20280;-39
2021/07/22 01:35:44;;;;;;;9.50;8.10;;;16.70;99.90;;;;;;5036879;28;20182;-43
2021/07/22 01:38:10;;;;;;;10.00;8.80;;;16.70;99.90;;;;;;5046330;28;20524;-39
2021/07/22 01:40:35;;;;;;;10.30;8.27;;;16.60;99.90;;;;;;5047316;28;20311;-39
2021/07/22 01:43:05;;;;;;;11.23;8.93;;;16.60;99.90;;;;;;5046844;28;20652;-41
2021/07/22 01:45:31;;;;;;;10.10;8.73;;;16.50;99.90;;;;;;5047218;28;20680;-39
2021/07/22 01:47:57;;;;;;;9.40;8.00;;;16.50;99.90;;;;;;5062622;28;20660;-39
2021/07/22 01:50:23;;;;;;;10.60;8.87;;;16.40;99.90;;;;;;5055407;28;20453;-40
2021/07/22 01:52:48;;;;;;;10.00;7.93;;;16.40;99.90;;;;;;5035217;28;20639;-41
2021/07/22 01:55:14;;;;;;;12.17;7.77;;;16.40;99.90;;;;;;5026978;28;20194;-40
2021/07/22 01:57:40;;;;;;;9.70;7.60;;;16.40;99.90;;;;;;5026821;28;20186;-41
2021/07/22 02:00:06;;;;;;;9.23;8.23;;;16.40;99.90;;;;;;5034168;28;20545;-39
2021/07/22 02:02:32;;;;;;;9.70;8.60;;;16.40;99.90;;;;;;5025449;28;20194;-40
2021/07/22 02:04:58;;;;;;;8.90;7.33;;;16.40;99.90;;;;;;5033161;28;20442;-41
2021/07/22 02:07:24;;;;;;;10.00;7.10;;;16.30;99.90;;;;;;5034765;28;20437;-40
2021/07/22 02:09:50;;;;;;;9.20;7.87;;;16.30;99.90;;;;;;5036092;28;20834;-40
2021/07/22 02:12:15;;;;;;;7.97;7.00;;;16.20;99.90;;;;;;5027242;28;20198;-42
2021/07/22 02:14:42;;;;;;;7.60;6.80;;;16.20;99.90;;;;;;5026842;28;20421;-42
2021/07/22 02:17:08;;;;;;;9.07;6.73;;;16.20;99.90;;;;;;5026675;28;20285;-41
2021/07/22 02:19:34;;;;;;;11.50;9.57;;;16.10;99.90;;;;;;5023794;28;20420;-40
2021/07/22 02:22:00;;;;;;;10.67;8.27;;;16.10;99.90;;;;;;5034411;28;20440;-41
2021/07/22 02:24:26;;;;;;;9.67;7.20;;;16.10;99.90;;;;;;5033388;28;20424;-40
2021/07/22 02:26:51;;;;;;;8.33;7.43;;;16.20;99.90;;;;;;5026521;28;20297;-40
2021/07/22 02:29:17;;;;;;;10.10;7.73;;;16.20;99.90;;;;;;5033136;28;20707;-40
2021/07/22 02:31:43;;;;;;;7.27;6.47;;;16.20;99.90;;;;;;5030792;28;20265;-47
2021/07/22 02:34:08;;;;;;;11.27;7.43;;;16.30;99.90;;;;;;5026271;28;20581;-40
2021/07/22 02:36:34;;;;;;;10.43;7.60;;;16.40;99.90;;;;;;5027235;28;20285;-42
2021/07/22 02:39:00;;;;;;;9.80;7.87;;;16.40;99.90;;;;;;5029678;28;20225;-45
2021/07/22 02:41:29;;;;;;;10.20;7.23;;;16.30;99.90;;;;;;5028447;28;20675;-42
2021/07/22 02:43:55;;;;;;;9.97;7.73;;;16.30;99.90;;;;;;5028567;28;20436;-42
2021/07/22 02:46:20;;;;;;;10.13;7.57;;;16.30;99.90;;;;;;5036414;28;20503;-40
2021/07/22 02:48:46;;;;;;;11.23;8.57;;;16.20;99.90;;;;;;5025873;28;20528;-46
2021/07/22 02:51:12;;;;;;;9.00;8.10;;;16.30;99.90;;;;;;5026009;28;20296;-42
2021/07/22 02:53:37;;;;;;;9.27;7.83;;;16.30;99.90;;;;;;5040680;28;20579;-40
2021/07/22 02:56:04;;;;;;;8.23;7.43;;;16.30;99.90;;;;;;5040704;28;20188;-46
2021/07/22 02:58:31;;;;;;;9.13;7.63;;;16.40;99.90;;;;;;5026132;28;20281;-41
2021/07/22 03:00:56;;;;;;;8.37;7.53;;;16.40;99.90;;;;;;5027930;28;20621;-41
2021/07/22 03:03:25;;;;;;;8.27;7.40;;;16.40;99.90;;;;;;5025824;28;20756;-43
2021/07/22 03:05:51;;;;;;;9.60;7.50;;;16.30;99.90;;;;;;5040432;28;20264;-40
2021/07/22 03:08:16;;;;;;;8.53;7.63;;;16.30;99.90;;;;;;5039297;28;20941;-40
2021/07/22 03:10:42;;;;;;;7.87;6.60;;;16.30;99.90;;;;;;5035793;28;20518;-42
2021/07/22 03:13:08;;;;;;;9.60;7.90;;;16.30;99.90;;;;;;5025490;28;20303;-41
2021/07/22 03:15:34;;;;;;;10.50;8.37;;;16.30;99.90;;;;;;5038096;28;20702;-40
2021/07/22 03:18:00;;;;;;;9.80;8.10;;;16.40;99.90;;;;;;5025733;28;20546;-42
2021/07/22 03:20:25;;;;;;;13.60;9.27;;;16.30;99.90;;;;;;5023966;28;20432;-41
2021/07/22 03:22:51;;;;;;;11.70;9.87;;;16.30;99.90;;;;;;5031163;28;20244;-39
2021/07/22 03:25:17;;;;;;;9.90;8.27;;;16.30;99.90;;;;;;5037311;28;20266;-39
2021/07/22 03:27:43;;;;;;;10.37;8.60;;;16.30;99.90;;;;;;5029677;28;20264;-41
2021/07/22 03:30:09;;;;;;;10.40;8.50;;;16.20;99.90;;;;;;5039050;28;20876;-41
2021/07/22 03:32:35;;;;;;;10.17;8.70;;;16.20;99.90;;;;;;5029784;28;20251;-39
2021/07/22 03:35:02;;;;;;;10.03;7.70;;;16.00;99.90;;;;;;5028703;28;20685;-40
2021/07/22 03:37:27;;;;;;;10.60;9.00;;;16.00;99.90;;;;;;5037787;28;21039;-40
2021/07/22 03:39:53;;;;;;;12.43;8.30;;;15.90;99.90;;;;;;5039702;28;20424;-42
2021/07/22 03:42:21;;;;;;;12.43;9.17;;;16.00;99.90;;;;;;5029886;28;20190;-40
2021/07/22 03:44:46;;;;;;;10.27;7.80;;;15.90;99.90;;;;;;5033103;28;20321;-41
2021/07/22 03:47:12;;;;;;;12.57;8.90;;;15.80;99.90;;;;;;5038591;28;20429;-40
2021/07/22 03:49:38;;;;;;;12.83;9.40;;;15.90;99.90;;;;;;5029589;28;20613;-40
2021/07/22 03:52:04;;;;;;;10.17;8.73;;;15.90;99.90;;;;;;5035970;28;20559;-39
2021/07/22 03:54:30;;;;;;;10.00;8.90;;;15.90;99.90;;;;;;5045500;28;20265;-40
2021/07/22 03:56:56;;;;;;;11.20;9.30;;;15.80;99.90;;;;;;5038128;28;20433;-40
2021/07/22 03:59:22;;;;;;;10.67;8.80;;;15.80;99.90;;;;;;5029160;28;20915;-39
2021/07/22 04:01:47;;;;;;;12.70;10.03;;;15.90;99.90;;;;;;5029136;28;20394;-41
2021/07/22 04:04:13;;;;;;;12.20;9.30;;;15.90;99.90;;;;;;5031009;28;20182;-42
2021/07/22 04:06:42;;;;;;;9.83;8.40;;;16.00;99.90;;;;;;5041147;28;20178;-39
2021/07/22 04:09:07;;;;;;;11.43;9.83;;;16.00;99.90;;;;;;5032084;28;20305;-41
2021/07/22 04:11:37;;;;;;;11.73;8.97;;;15.90;99.90;;;;;;5036262;28;20519;-40
2021/07/22 04:14:05;;;;;;;9.87;8.43;;;15.90;99.90;;;;;;5029089;28;20202;-43
2021/07/22 04:16:33;;;;;;;10.17;8.27;;;15.90;99.90;;;;;;5036805;28;20463;-40
2021/07/22 04:18:59;;;;;;;11.20;9.23;;;16.00;99.90;;;;;;5028590;28;20421;-40
2021/07/22 04:21:24;;;;;;;12.77;8.80;;;16.00;99.90;;;;;;5025350;28;20440;-40
2021/07/22 04:23:50;;;;;;;11.40;9.13;;;16.10;99.90;;;;;;5037694;28;20637;-40
2021/07/22 04:26:17;;;;;;;9.80;8.60;;;16.10;99.90;;;;;;5048055;28;20193;-40
2021/07/22 04:28:43;;;;;;;10.20;8.47;;;16.10;99.90;;;;;;5032031;28;20264;-40
2021/07/22 04:31:13;;;;;;;12.40;8.97;;;16.00;99.90;;;;;;5031937;28;20551;-41
2021/07/22 04:33:39;;;;;;;11.03;8.60;;;16.00;99.90;;;;;;5028307;28;20432;-41
2021/07/22 04:36:05;;;;;;;13.73;9.00;;;16.00;99.90;;;;;;5027776;28;20579;-40
2021/07/22 04:38:34;;;;;;;10.00;8.30;;;16.10;99.90;;;;;;5036822;28;20189;-40
2021/07/22 04:41:02;;;;;;;12.40;9.23;;;16.10;99.90;;;;;;5041362;28;20457;-40
2021/07/22 04:43:28;;;;;;;10.63;8.40;;;16.10;99.90;;;;;;5028050;28;20417;-42
2021/07/22 04:45:53;;;;;;;10.43;9.30;;;16.10;99.90;;;;;;5033992;28;20511;-41
2021/07/22 04:48:19;;;;;;;11.03;9.23;;;16.00;99.90;;;;;;5030361;28;20198;-40
2021/07/22 04:50:45;;;;;;;12.87;8.83;;;16.10;99.90;;;;;;5028586;28;20221;-40
2021/07/22 04:53:10;;;;;;;8.70;7.80;;;16.10;99.90;;;;;;5033032;28;20648;-40
2021/07/22 04:55:36;;;;;;;12.17;8.50;;;16.20;99.90;;;;;;5036934;28;20757;-41
2021/07/22 04:58:02;;;;;;;12.43;8.83;;;16.20;99.90;;;;;;5028332;28;20719;-39
2021/07/22 05:00:28;;;;;;;10.47;8.53;;;16.30;99.90;;;;;;5035085;28;20558;-40
2021/07/22 05:02:58;;;;;;;9.80;8.20;;;16.40;99.90;;;;;;5030433;28;20414;-43
2021/07/22 05:05:28;;;;;;;9.37;7.97;;;16.40;99.90;;;;;;5039756;28;20271;-41
2021/07/22 05:07:54;;;;;;;11.43;8.43;;;16.50;99.90;;;;;;5046113;28;20481;-40
2021/07/22 05:10:19;;;;;;;9.47;8.07;;;16.60;99.90;;;;;;5043385;28;20468;-39
2021/07/22 05:12:45;;;;;;;11.07;8.87;;;16.60;99.90;;;;;;5042391;28;20341;-41
2021/07/22 05:15:12;;;;;;;10.83;7.10;;;16.60;99.90;;;;;;5031139;28;20221;-40
2021/07/22 05:17:38;;;;;;;11.37;8.60;;;16.70;99.90;;;;;;5028486;28;20684;-39
2021/07/22 05:20:04;;;;;;;9.63;7.70;;;16.70;99.90;;;;;;5024561;28;20541;-42
2021/07/22 05:22:30;;;;;;;10.33;8.50;;;16.80;99.90;;;;;;5031509;28;20520;-43
2021/07/22 05:24:56;;;;;;;11.00;8.07;;;16.80;99.90;;;;;;5043221;28;20862;-42
2021/07/22 05:27:21;;;;;;;10.63;8.30;;;16.90;99.90;;;;;;5035259;28;20190;-40
2021/07/22 05:29:47;;;;;;;11.40;8.67;;;17.00;99.90;;;;;;5028187;28;20567;-41
2021/07/22 05:32:14;;;;;;;9.33;7.83;;;17.00;99.90;;;;;;5027503;28;20665;-39
2021/07/22 05:34:39;;;;;;;11.83;8.03;;;17.10;99.90;;;;;;5027057;28;20225;-39
2021/07/22 05:37:07;;;;;;;10.50;8.43;;;17.10;99.90;;;;;;5028134;28;20787;-41
2021/07/22 05:39:34;;;;;;;11.37;8.17;;;17.20;99.90;;;;;;5036652;28;20312;-40
2021/07/22 05:42:00;;;;;;;10.23;7.93;;;17.20;99.90;;;;;;5034907;28;20437;-40
2021/07/22 05:44:25;;;;;;;9.30;7.93;;;17.20;99.90;;;;;;5025364;28;20548;-39
2021/07/22 05:46:51;;;;;;;10.33;8.30;;;17.30;99.90;;;;;;5027353;28;21182;-42
2021/07/22 05:49:16;;;;;;;9.80;8.20;;;17.30;99.90;;;;;;5026320;28;20734;-40
2021/07/22 05:51:42;;;;;;;12.77;8.53;;;17.40;99.90;;;;;;5026626;28;20668;-46
2021/07/22 05:54:11;;;;;;;8.47;7.57;;;17.50;99.90;;;;;;5036785;28;20281;-41
2021/07/22 05:56:37;;;;;;;12.23;8.40;;;17.50;99.90;;;;;;5040631;28;20671;-40
2021/07/22 05:59:02;;;;;;;11.80;9.07;;;17.60;99.90;;;;;;5033070;28;20923;-40
2021/07/22 06:01:28;;;;;;;9.60;7.53;;;17.60;99.90;;;;;;5034143;28;20483;-41
2021/07/22 06:03:54;;;;;;;11.47;7.80;;;17.70;99.90;;;;;;5035019;28;20533;-40
2021/07/22 06:06:20;;;;;;;8.57;7.70;;;17.70;99.90;;;;;;5035809;28;20455;-42
2021/07/22 06:08:46;;;;;;;9.43;8.23;;;17.80;99.90;;;;;;5042811;28;20206;-40
2021/07/22 06:11:12;;;;;;;9.00;7.73;;;17.80;99.90;;;;;;5041692;28;20236;-44
2021/07/22 06:13:38;;;;;;;9.23;7.53;;;17.90;99.90;;;;;;5034082;28;20293;-40
2021/07/22 06:16:09;;;;;;;10.60;8.50;;;17.90;99.90;;;;;;5027616;28;20456;-42
2021/07/22 06:18:35;;;;;;;8.87;7.90;;;17.90;99.90;;;;;;5024826;28;20421;-40
2021/07/22 06:21:00;;;;;;;10.13;8.10;;;18.00;99.90;;;;;;5024375;28;20939;-39
2021/07/22 06:23:26;;;;;;;11.10;9.03;;;18.00;99.90;;;;;;5025098;28;20297;-40
2021/07/22 06:25:59;;;;;;;11.63;8.93;;;18.00;99.90;;;;;;5027047;28;20205;-40
2021/07/22 06:28:25;;;;;;;11.77;8.40;;;18.00;99.90;;;;;;5024001;28;20343;-40
2021/07/22 06:30:52;;;;;;;11.27;9.10;;;18.10;99.90;;;;;;5030635;28;20452;-41
2021/07/22 06:33:18;;;;;;;10.53;7.87;;;18.10;99.90;;;;;;5030649;28;20801;-39
2021/07/22 06:35:43;;;;;;;9.67;8.23;;;18.10;99.90;;;;;;5025927;28;20417;-42
2021/07/22 06:38:09;;;;;;;10.27;8.77;;;18.10;99.90;;;;;;5027094;28;20236;-41
2021/07/22 06:40:37;;;;;;;8.47;7.50;;;18.20;99.90;;;;;;5039975;28;20252;-39
2021/07/22 06:43:03;;;;;;;11.70;9.20;;;18.20;99.90;;;;;;5042105;28;20644;-42
2021/07/22 06:45:29;;;;;;;10.20;8.20;;;18.30;99.90;;;;;;5027915;28;20472;-41
2021/07/22 06:47:55;;;;;;;12.27;8.30;;;18.40;99.90;;;;;;5026260;28;20186;-40
2021/07/22 06:50:20;;;;;;;9.83;8.00;;;18.60;99.90;;;;;;5025716;28;20218;-40
2021/07/22 06:52:46;;;;;;;10.43;9.00;;;18.80;99.90;;;;;;5026514;28;20186;-41
2021/07/22 06:55:12;;;;;;;11.47;8.20;;;19.00;99.90;;;;;;5038464;28;20268;-43
2021/07/22 06:57:38;;;;;;;11.93;8.80;;;19.20;99.90;;;;;;5034437;28;20743;-41
2021/07/22 07:00:04;;;;;;;9.67;8.30;;;19.40;99.90;;;;;;5026892;28;20425;-42
2021/07/22 07:02:30;;;;;;;8.83;7.60;;;19.50;99.90;;;;;;5034222;28;20186;-42
2021/07/22 07:04:56;;;;;;;8.77;7.60;;;19.60;99.90;;;;;;5035551;28;20421;-40
2021/07/22 07:07:21;;;;;;;9.17;7.77;;;19.60;99.90;;;;;;5034971;28;20213;-41
2021/07/22 07:09:47;;;;;;;9.83;8.17;;;19.70;99.90;;;;;;5039763;28;20225;-41
2021/07/22 07:12:14;;;;;;;9.97;8.20;;;19.80;99.90;;;;;;5035909;28;20226;-40
2021/07/22 07:14:40;;;;;;;11.20;8.30;;;19.90;99.90;;;;;;5025335;28;20848;-40
2021/07/22 07:17:05;;;;;;;8.17;7.37;;;19.90;99.90;;;;;;5031171;28;20280;-40
2021/07/22 07:19:31;;;;;;;12.30;7.77;;;19.90;99.90;;;;;;5034407;28;20421;-43
2021/07/22 07:21:57;;;;;;;9.90;7.93;;;19.90;99.90;;;;;;5040974;28;20778;-40
2021/07/22 07:24:22;;;;;;;9.40;7.77;;;19.90;99.90;;;;;;5040224;28;20272;-40
2021/07/22 07:26:48;;;;;;;9.53;7.67;;;20.00;99.90;;;;;;5033452;28;20190;-48
2021/07/22 07:29:14;;;;;;;9.43;8.30;;;20.10;99.90;;;;;;5025688;28;20229;-40
2021/07/22 07:31:40;;;;;;;10.70;8.10;;;20.10;99.90;;;;;;5031059;28;20194;-40
2021/07/22 07:34:06;;;;;;;10.17;8.73;;;20.20;99.90;;;;;;5025353;28;20607;-40
2021/07/22 07:36:32;;;;;;;10.20;8.47;;;20.20;99.90;;;;;;5025263;28;20435;-40
2021/07/22 07:38:58;;;;;;;9.40;7.73;;;20.20;99.90;;;;;;5029201;28;20463;-43
2021/07/22 07:41:23;;;;;;;10.93;8.67;;;20.30;99.90;;;;;;5041611;28;20420;-40
2021/07/22 07:43:49;;;;;;;11.83;8.40;;;20.40;99.90;;;;;;5034261;28;20195;-45
2021/07/22 07:46:15;;;;;;;9.30;7.67;;;20.50;99.90;;;;;;5031804;28;20209;-40
2021/07/22 07:48:41;;;;;;;12.03;9.50;;;20.60;99.90;;;;;;5025844;28;20436;-41
2021/07/22 07:51:08;;;;;;;12.23;7.93;;;20.70;99.90;;;;;;5025429;28;20221;-44
2021/07/22 07:53:35;;;;;;;10.40;8.50;;;20.70;99.90;;;;;;5023381;28;20221;-43
2021/07/22 07:56:02;;;;;;;10.30;8.30;;;20.90;99.90;;;;;;5037721;28;20428;-41
2021/07/22 07:58:27;;;;;;;9.90;8.07;;;21.00;99.90;;;;;;5031696;28;20490;-41
2021/07/22 08:00:53;;;;;;;10.27;7.80;;;21.10;99.90;;;;;;5025289;28;20436;-43
2021/07/22 08:03:20;;;;;;;9.00;7.40;;;21.10;99.90;;;;;;5034530;28;20613;-40
2021/07/22 08:05:47;;;;;;;8.30;7.40;;;21.20;99.90;;;;;;5039755;28;20436;-40
2021/07/22 08:08:13;;;;;;;10.67;8.00;;;21.30;99.90;;;;;;5041979;28;20431;-43
2021/07/22 08:10:41;;;;;;;11.70;8.53;;;21.40;99.90;;;;;;5036802;28;20976;-42
2021/07/22 08:13:11;;;;;;;11.30;8.57;;;21.50;99.90;;;;;;5035506;28;20471;-42
2021/07/22 08:15:40;;;;;;;13.27;8.70;;;21.60;99.90;;;;;;5030068;28;20421;-43
2021/07/22 08:18:05;;;;;;;9.87;7.30;;;21.80;99.90;;;;;;5042085;28;20463;-42
2021/07/22 08:20:31;;;;;;;9.80;8.47;;;21.90;99.90;;;;;;5035546;28;20880;-41
2021/07/22 08:22:57;;;;;;;9.50;8.40;;;21.90;99.90;;;;;;5043026;28;20682;-43
2021/07/22 08:25:23;;;;;;;9.93;7.77;;;22.00;99.90;;;;;;5036776;28;20586;-40
2021/07/22 08:27:49;;;;;;;8.90;7.83;;;22.00;99.90;;;;;;5042229;28;20198;-44
2021/07/22 08:30:15;;;;;;;8.90;7.17;;;22.10;99.90;;;;;;5037667;28;20479;-41
2021/07/22 08:32:41;;;;;;;8.27;7.20;;;22.10;99.90;;;;;;5038845;28;20236;-45
2021/07/22 08:35:08;;;;;;;10.80;8.70;;;22.10;99.90;;;;;;5031401;28;20194;-42
2021/07/22 08:37:33;;;;;;;7.80;7.00;;;22.10;99.90;;;;;;5044165;28;20489;-40
2021/07/22 08:40:03;;;;;;;8.73;7.83;;;22.10;99.90;;;;;;5042139;28;20690;-40
2021/07/22 08:42:35;;;;;;;8.23;7.37;;;22.10;99.90;;;;;;5035254;28;20229;-43
2021/07/22 08:45:02;;;;;;;11.03;8.10;;;22.10;99.90;;;;;;5027584;28;20433;-40
2021/07/22 08:47:28;;;;;;;9.40;7.10;;;22.10;99.90;;;;;;5036699;28;20429;-43
2021/07/22 08:49:55;;;;;;;10.30;7.67;;;22.20;99.90;;;;;;5027483;28;20560;-43
2021/07/22 08:52:21;;;;;;;10.60;8.93;;;22.20;99.90;;;;;;5028661;28;20430;-42
2021/07/22 08:54:46;;;;;;;9.13;7.40;;;22.20;99.90;;;;;;5029215;28;20444;-39
2021/07/22 08:57:13;;;;;;;9.07;8.00;;;22.20;99.90;;;;;;5034833;28;20474;-43
2021/07/22 08:59:39;;;;;;;10.63;8.33;;;22.20;99.90;;;;;;5028678;28;20514;-39
2021/07/22 09:02:05;;;;;;;9.53;7.90;;;22.20;99.90;;;;;;5032590;28;20918;-42
2021/07/22 09:04:49;;;;;;;10.97;8.60;;;22.30;99.90;;;;;;5028799;28;20633;-43
2021/07/22 09:07:16;;;;;;;14.43;9.50;;;22.40;99.90;;;;;;5028310;28;21060;-43
2021/07/22 09:09:41;;;;;;;13.17;9.77;;;22.50;99.90;;;;;;5031652;28;20768;-41
2021/07/22 09:12:07;;;;;;;8.90;8.00;;;22.60;99.90;;;;;;5042969;28;20960;-40
2021/07/22 09:14:35;;;;;;;10.10;8.57;;;22.60;99.90;;;;;;5038386;28;20389;-40
2021/07/22 09:17:01;;;;;;;11.97;8.60;;;22.80;99.90;;;;;;5029668;28;20185;-40
2021/07/22 09:19:45;;;;;;;10.40;9.13;;;22.90;99.90;;;;;;5026523;28;20798;-42
2021/07/22 09:22:11;;;;;;;10.43;8.40;;;23.00;99.90;;;;;;5026133;28;20927;-44
2021/07/22 09:24:50;;;;;;;11.37;9.07;;;23.00;99.90;;;;;;5032756;28;20444;-41
2021/07/22 09:27:34;;;;;;;9.23;8.00;;;23.10;99.90;;;;;;5041583;28;20770;-40
2021/07/22 09:30:02;;;;;;;9.20;8.20;;;23.10;99.90;;;;;;5027455;28;20476;-42
2021/07/22 09:32:32;;;;;;;9.57;8.53;;;23.20;99.90;;;;;;5033376;28;20424;-42
2021/07/22 09:35:10;;;;;;;9.87;8.63;;;23.30;99.90;;;;;;5031621;28;20427;-43
2021/07/22 09:37:56;;;;;;;9.63;8.17;;;23.40;99.90;;;;;;5027038;28;20592;-40
2021/07/22 09:40:25;;;;;;;11.90;9.23;;;23.50;99.90;;;;;;5031478;28;20436;-42
2021/07/22 09:42:54;;;;;;;11.70;8.60;;;23.50;99.90;;;;;;5037262;28;20612;-41
2021/07/22 09:45:23;;;;;;;11.70;9.77;;;23.40;99.90;;;;;;5032470;28;20435;-41
2021/07/22 09:47:50;;;;;;;10.27;9.27;;;23.40;99.90;;;;;;5034551;28;20574;-42
2021/07/22 09:50:17;;;;;;;13.33;9.53;;;23.40;99.90;;;;;;5026908;28;21353;-40
2021/07/22 09:52:44;;;;;;;12.50;9.20;;;23.40;99.90;;;;;;5027021;28;20425;-42
2021/07/22 09:55:27;;;;;;;12.67;9.67;;;23.40;99.90;;;;;;5032901;28;20439;-41
2021/07/22 09:57:58;;;;;;;12.77;10.23;;;23.40;99.90;;;;;;5035362;28;20479;-40
2021/07/22 10:00:25;;;;;;;11.27;8.70;;;23.50;99.90;;;;;;5035310;28;20451;-39
2021/07/22 10:02:52;;;;;;;13.73;10.77;;;23.60;99.90;;;;;;5027806;28;20504;-40
2021/07/22 10:05:27;;;;;;;11.53;10.20;;;23.70;99.90;;;;;;5026312;28;20433;-40
2021/07/22 10:07:54;;;;;;;10.17;9.07;;;23.80;99.90;;;;;;5026954;28;20958;-43
2021/07/22 10:10:22;;;;;;;10.43;8.97;;;23.90;99.90;;;;;;5036197;28;20476;-39
2021/07/22 10:12:58;;;;;;;12.27;10.07;;;24.00;99.90;;;;;;5038576;28;20425;-40
2021/07/22 10:15:31;;;;;;;18.33;9.47;;;24.20;99.90;;;;;;5031372;28;20417;-40
2021/07/22 10:17:58;;;;;;;10.53;9.43;;;24.30;99.90;;;;;;5034046;28;20569;-41
2021/07/22 10:20:31;;;;;;;13.43;9.47;;;24.40;99.90;;;;;;5029901;28;20946;-41
2021/07/22 10:22:57;;;;;;;10.93;9.60;;;24.50;99.90;;;;;;5026848;28;20440;-40
2021/07/22 10:25:24;;;;;;;11.67;10.13;;;24.50;99.90;;;;;;5026977;28;20429;-40
2021/07/22 10:27:52;;;;;;;13.97;10.37;;;24.50;99.90;;;;;;5035139;28;20487;-41
2021/07/22 10:30:19;;;;;;;12.53;11.07;;;24.60;99.90;;;;;;5027214;28;20977;-44
2021/07/22 10:33:00;;;;;;;10.77;9.60;;;24.80;99.90;;;;;;5030343;28;20528;-40
2021/07/22 10:35:31;;;;;;;14.10;10.50;;;24.80;99.90;;;;;;5024942;28;20486;-39
2021/07/22 10:38:09;;;;;;;12.37;9.47;;;24.90;99.90;;;;;;5026710;28;20772;-41
2021/07/22 10:41:01;;;;;;;12.60;11.30;;;24.90;99.90;;;;;;5026146;28;20440;-42
2021/07/22 10:43:39;;;;;;;10.83;9.73;;;25.00;99.20;;;;;;5036915;28;20429;-40
2021/07/22 10:46:16;;;;;;;9.50;8.67;;;25.10;99.70;;;;;;5039717;28;20767;-41
2021/07/22 10:48:44;;;;;;;9.07;8.17;;;25.10;99.30;;;;;;5025910;28;20954;-41
2021/07/22 10:51:18;;;;;;;10.60;9.40;;;25.10;99.10;;;;;;5024446;28;20475;-39
2021/07/22 10:53:45;;;;;;;12.03;9.83;;;25.20;99.20;;;;;;5025624;28;20421;-41
2021/07/22 10:56:13;;;;;;;9.90;8.90;;;25.30;98.90;;;;;;5032166;28;20478;-41
2021/07/22 10:58:38;;;;;;;11.73;10.53;;;25.40;99.00;;;;;;5039865;28;20551;-43
2021/07/22 11:01:06;;;;;;;11.63;10.20;;;25.50;99.60;;;;;;5026069;28;20503;-42
2021/07/22 11:03:34;;;;;;;14.27;10.57;;;25.50;98.10;;;;;;5033828;28;20190;-43
2021/07/22 11:06:10;;;;;;;12.40;10.30;;;25.60;98.60;;;;;;5028219;28;20421;-42
2021/07/22 11:08:38;;;;;;;13.63;11.60;;;25.70;98.20;;;;;;5025745;28;20433;-45
2021/07/22 11:11:15;;;;;;;12.23;10.63;;;25.80;99.30;;;;;;5030051;28;20955;-40
2021/07/22 11:13:48;;;;;;;13.43;12.03;;;25.90;98.90;;;;;;5030786;28;21369;-41
2021/07/22 11:16:22;;;;;;;13.27;11.87;;;26.00;99.90;;;;;;5025537;28;20479;-41
2021/07/22 11:18:48;;;;;;;12.47;11.20;;;26.00;98.00;;;;;;5032807;28;20447;-44
2021/07/22 11:21:18;;;;;;;11.77;10.47;;;26.10;99.50;;;;;;5024691;28;20425;-39
2021/07/22 11:23:58;;;;;;;13.77;11.07;;;26.10;97.40;;;;;;5025258;28;20468;-40
2021/07/22 11:26:30;;;;;;;16.13;13.60;;;26.00;96.90;;;;;;5034897;28;20428;-43
2021/07/22 11:28:56;;;;;;;12.80;11.60;;;26.00;97.00;;;;;;5040325;28;20428;-40
2021/07/22 11:31:22;;;;;;;16.33;13.10;;;26.00;97.20;;;;;;5032607;28;20476;-40
2021/07/22 11:33:48;;;;;;;15.43;12.40;;;26.00;97.40;;;;;;5027858;28;20903;-40
2021/07/22 11:36:22;;;;;;;17.93;15.47;;;26.10;98.60;;;;;;5027568;28;20186;-39
2021/07/22 11:38:52;;;;;;;16.70;14.90;;;26.00;99.20;;;;;;5025335;28;20194;-44
2021/07/22 11:41:20;;;;;;;17.57;13.53;;;26.00;99.70;;;;;;5027661;28;20444;-41
2021/07/22 11:43:57;;;;;;;15.77;14.17;;;26.00;99.70;;;;;;5042344;28;20428;-39
2021/07/22 11:46:35;;;;;;;15.13;13.10;;;25.90;97.80;;;;;;5032236;28;20433;-43
2021/07/22 11:49:10;;;;;;;16.50;14.10;;;25.90;99.50;;;;;;5038833;28;20420;-43
2021/07/22 11:51:37;;;;;;;16.40;12.97;;;25.90;99.40;;;;;;5042979;28;20497;-42
2021/07/22 11:54:03;;;;;;;16.97;13.40;;;26.10;99.70;;;;;;5042028;28;20425;-40
2021/07/22 11:56:32;;;;;;;15.10;13.60;;;26.20;98.30;;;;;;5045214;28;20459;-40
2021/07/22 11:58:58;;;;;;;16.17;14.03;;;26.30;99.30;;;;;;5041208;28;20754;-42
2021/07/22 12:01:24;;;;;;;17.77;14.33;;;26.40;97.60;;;;;;5028238;28;20490;-42
2021/07/22 12:03:50;;;;;;;15.43;12.83;;;26.40;97.60;;;;;;5036058;28;20435;-39
2021/07/22 12:06:27;;;;;;;15.77;14.07;;;26.30;97.20;;;;;;5029482;28;20494;-39
2021/07/22 12:09:09;;;;;;;16.27;14.57;;;26.10;96.50;;;;;;5029119;28;20684;-45
2021/07/22 12:11:50;;;;;;;14.70;13.20;;;25.80;96.90;;;;;;5038014;28;20472;-39
2021/07/22 12:14:37;;;;;;;13.37;12.10;;;25.80;97.70;;;;;;5039289;28;20435;-42
2021/07/22 12:17:11;;;;;;;14.00;12.57;;;25.90;96.30;;;;;;5033700;28;20416;-41
2021/07/22 12:19:38;;;;;;;13.47;12.17;;;25.90;96.70;;;;;;5031918;28;20449;-42
2021/07/22 12:22:26;;;;;;;16.60;12.97;;;26.10;96.80;;;;;;5028632;28;20494;-43
2021/07/22 12:24:55;;;;;;;15.00;13.60;;;26.10;96.10;;;;;;5028520;28;20427;-45
2021/07/22 12:27:33;;;;;;;14.50;12.93;;;26.10;96.40;;;;;;5046092;28;20503;-42
2021/07/22 12:30:03;;;;;;;14.83;13.37;;;26.10;96.50;;;;;;5043288;28;20706;-43
2021/07/22 12:32:29;;;;;;;15.37;12.47;;;26.20;96.20;;;;;;5028496;28;20514;-43
2021/07/22 12:34:56;;;;;;;13.33;12.17;;;26.30;96.90;;;;;;5027925;28;20417;-42
2021/07/22 12:37:55;;;;;;;16.87;15.03;;;26.40;97.50;;;;;;5027327;28;20436;-42
2021/07/22 12:40:35;;;;;;;18.27;15.00;;;26.50;97.40;;;;;;5029053;28;20461;-45